Time;durP1;ratioP1;P1;durP2;ratioP2;P2;SDS_P1;SDS_P2;PMS_P1;PMS_P2;Temp;Humidity;BMP_temperature;BMP_pressure;BME280_temperature;BME280_humidity;BME280_pressure;Samples;Min_cycle;Max_cycle;Signal;HPM_P1;HPM_P2
2021/12/22 00:01:12;;;;;;;10.90;7.20;;;;;;;-4.93;80.79;98076.52;108332;1269;69349;-74
2021/12/22 00:03:46;;;;;;;11.50;8.70;;;;;;;-4.90;80.71;98080.41;108274;1269;59774;-75
2021/12/22 00:06:20;;;;;;;16.60;10.40;;;;;;;-4.87;81.12;98082.96;108311;1269;59671;-74
2021/12/22 00:08:49;;;;;;;16.10;10.10;;;;;;;-4.84;81.66;98083.98;108222;1273;71678;-75
2021/12/22 00:11:19;;;;;;;11.10;6.60;;;;;;;-4.81;81.15;98089.24;108103;1272;68800;-75
2021/12/22 00:13:48;;;;;;;12.90;7.50;;;;;;;-4.78;80.32;98095.54;108253;1269;69543;-74
2021/12/22 00:16:17;;;;;;;9.50;7.60;;;;;;;-4.76;80.26;98095.89;108021;1272;60113;-75
2021/12/22 00:18:47;;;;;;;18.70;11.30;;;;;;;-4.75;80.68;98098.10;108268;1269;59751;-75
2021/12/22 00:21:16;;;;;;;11.90;7.20;;;;;;;-4.73;80.55;98109.30;107849;1272;550923;-75
2021/12/22 00:23:46;;;;;;;12.30;8.60;;;;;;;-4.70;80.03;98109.31;108288;1269;68638;-75
2021/12/22 00:26:16;;;;;;;8.20;6.70;;;;;;;-4.69;79.88;98111.52;108317;1269;68689;-75
2021/12/22 00:28:47;;;;;;;11.50;6.70;;;;;;;-4.68;79.79;98119.17;108116;1272;59667;-75
2021/12/22 00:31:19;;;;;;;;;;;;;;;-4.66;79.45;98117.98;108346;1269;59770;-75
2021/12/22 00:33:50;;;;;;;8.90;5.90;;;;;;;-4.66;79.69;98121.05;108317;1269;70812;-75
2021/12/22 00:36:23;;;;;;;16.60;10.10;;;;;;;-4.66;79.81;98119.69;108336;1269;67818;-74
2021/12/22 00:38:53;;;;;;;18.40;11.60;;;;;;;-4.69;80.22;98116.28;108344;1269;68851;-74
2021/12/22 00:41:23;;;;;;;20.80;11.50;;;;;;;-4.72;80.54;98117.46;108274;1269;59752;-75
2021/12/22 00:43:52;;;;;;;17.90;10.50;;;;;;;-4.74;80.59;98118.49;108167;1273;59671;-75
2021/12/22 00:46:21;;;;;;;13.10;8.40;;;;;;;-4.77;80.39;98120.88;108294;1273;70590;-74
2021/12/22 00:48:52;;;;;;;13.40;7.90;;;;;;;-4.75;79.98;98122.92;108280;1269;67877;-74
2021/12/22 00:51:21;;;;;;;10.40;6.60;;;;;;;-4.72;79.69;98129.72;108392;1269;68651;-74
2021/12/22 00:53:50;;;;;;;9.10;5.60;;;;;;;-4.70;79.89;98128.88;108354;1268;59744;-74
2021/12/22 00:56:19;;;;;;;9.60;6.80;;;;;;;-4.69;79.46;98133.11;108322;1269;59710;-74
2021/12/22 00:58:49;;;;;;;12.00;7.20;;;;;;;-4.66;79.06;98133.63;108350;1270;70822;-74
2021/12/22 01:01:18;;;;;;;8.40;6.50;;;;;;;-4.64;78.76;98133.96;108326;1269;68595;-73
2021/12/22 01:03:47;;;;;;;10.40;7.40;;;;;;;-4.63;78.51;98133.11;108340;1269;68620;-74
2021/12/22 01:06:17;;;;;;;9.30;6.20;;;;;;;-4.61;78.26;98133.64;108339;1269;59717;-75
2021/12/22 01:08:46;;;;;;;15.10;9.00;;;;;;;-4.61;78.11;98136.52;108331;1273;59727;-73
2021/12/22 01:11:16;;;;;;;8.60;6.10;;;;;;;-4.61;78.16;98139.58;108431;1269;71542;-73
2021/12/22 01:13:45;;;;;;;9.20;5.70;;;;;;;-4.59;78.21;98137.87;108270;1273;67009;-74
2021/12/22 01:16:14;;;;;;;11.20;7.30;;;;;;;-4.57;78.01;98142.64;108165;1274;69433;-74
2021/12/22 01:18:44;;;;;;;10.50;6.40;;;;;;;-4.56;78.05;98144.16;108156;1269;59710;-75
2021/12/22 01:22:06;;;;;;;7.00;5.80;;;;;;;-4.55;78.04;98140.26;108035;1272;59710;-75
2021/12/22 01:24:15;;;;;;;9.30;7.00;;;;;;;-4.54;78.13;98139.73;107975;1276;70648;-75
2021/12/22 01:26:50;;;;;;;8.90;6.10;;;;;;;-4.54;78.37;98135.81;108006;1274;68601;-75
2021/12/22 01:29:20;;;;;;;10.30;7.20;;;;;;;-4.54;78.35;98134.80;108105;1272;68629;-75
2021/12/22 01:31:50;;;;;;;8.40;6.10;;;;;;;-4.53;78.18;98133.78;108067;1273;59777;-74
2021/12/22 01:34:19;;;;;;;18.70;10.70;;;;;;;-4.52;78.61;98131.58;108109;1272;59713;-75
2021/12/22 01:36:48;;;;;;;15.80;9.40;;;;;;;-4.54;79.04;98127.81;108088;1272;72004;-75
2021/12/22 01:39:18;;;;;;;14.70;9.00;;;;;;;-4.54;78.70;98125.61;108223;1269;67828;-75
2021/12/22 01:41:48;;;;;;;16.10;10.60;;;;;;;-4.55;78.85;98120.18;108146;1270;68804;-75
2021/12/22 01:44:34;;;;;;;10.80;6.70;;;;;;;-4.58;79.12;98121.54;108035;1272;59773;-74
2021/12/22 01:49:54;;;;;;;20.70;10.20;;;;;;;-4.57;77.87;98114.23;108103;1272;71603;-74
2021/12/22 01:52:24;;;;;;;16.80;9.90;;;;;;;-4.58;78.10;98110.65;108102;1272;68779;-75
2021/12/22 01:55:05;;;;;;;14.00;7.80;;;;;;;-4.67;78.37;98107.10;108108;1272;67634;-75
2021/12/22 01:57:44;;;;;;;19.60;11.70;;;;;;;-4.77;78.85;98104.04;108067;1272;59690;-75
2021/12/22 02:00:16;;;;;;;18.30;11.90;;;;;;;-4.85;79.17;98101.33;108083;1272;59687;-75
2021/12/22 02:02:46;;;;;;;17.00;10.80;;;;;;;-4.94;79.71;98102.86;108120;1272;70188;-75
2021/12/22 02:05:15;;;;;;;14.50;8.90;;;;;;;-5.03;80.25;98102.35;108148;1272;68591;-74
2021/12/22 02:07:45;;;;;;;12.40;7.40;;;;;;;-5.06;79.98;98103.89;108109;1272;69432;-75
2021/12/22 02:10:36;;;;;;;13.70;9.50;;;;;;;-5.05;80.08;98103.20;108096;1272;59680;-75
2021/12/22 02:13:15;;;;;;;18.70;11.70;;;;;;;-5.04;80.19;98101.33;108058;1272;59652;-75
2021/12/22 02:15:47;;;;;;;17.80;10.90;;;;;;;-5.05;80.50;98100.64;108157;1272;71552;-75
2021/12/22 02:18:19;;;;;;;12.60;8.10;;;;;;;-5.06;80.54;98099.81;108092;1272;68145;-75
2021/12/22 02:20:50;;;;;;;13.40;9.00;;;;;;;-5.05;80.55;98098.44;108277;1269;69451;-75
2021/12/22 02:23:20;;;;;;;12.80;7.10;;;;;;;-5.06;81.04;98103.04;108336;1269;59725;-75
2021/12/22 02:25:57;;;;;;;20.30;10.90;;;;;;;-5.04;80.71;98102.69;108100;1273;59679;-75
2021/12/22 02:28:31;;;;;;;19.60;12.00;;;;;;;-5.05;81.26;98103.02;108288;1269;70811;-75
2021/12/22 02:31:02;;;;;;;20.50;11.90;;;;;;;-5.07;81.52;98096.40;108250;1269;67663;-75
2021/12/22 02:33:35;;;;;;;18.00;10.40;;;;;;;-5.11;81.77;98097.77;108314;1272;69619;-75
2021/12/22 02:36:09;;;;;;;13.10;7.60;;;;;;;-5.13;82.04;98096.90;108312;1269;59725;-75
2021/12/22 02:38:43;;;;;;;18.10;11.00;;;;;;;-5.08;80.92;98096.07;108326;1271;59719;-75
2021/12/22 02:41:16;;;;;;;17.10;9.20;;;;;;;-5.08;81.29;98094.70;108329;1270;71642;-76
2021/12/22 02:43:52;;;;;;;18.90;11.10;;;;;;;-5.08;80.81;98094.86;108127;1270;66762;-76
2021/12/22 02:46:28;;;;;;;15.80;9.50;;;;;;;-5.11;81.19;98094.70;108155;1272;69488;-75
2021/12/22 02:49:01;;;;;;;13.50;8.80;;;;;;;-5.11;81.19;98093.18;108313;1269;59761;-75
2021/12/22 02:51:30;;;;;;;16.00;9.90;;;;;;;-5.10;81.12;98090.63;108220;1270;59665;-77
2021/12/22 02:54:20;;;;;;;13.80;8.60;;;;;;;-5.11;81.32;98087.91;108295;1271;71370;-75
2021/12/22 02:56:55;;;;;;;11.20;8.00;;;;;;;-5.09;80.61;98087.05;108283;1269;68765;-74
2021/12/22 03:00:04;;;;;;;13.60;8.30;;;;;;;-5.07;80.07;98091.31;108166;1269;67632;-76
2021/12/22 03:02:41;;;;;;;11.50;7.80;;;;;;;-5.09;80.32;98091.13;108225;1269;59677;-76
2021/12/22 03:05:12;;;;;;;8.20;5.10;;;;;;;-5.07;80.22;98086.72;108318;1269;59777;-75
2021/12/22 03:07:45;;;;;;;8.50;5.60;;;;;;;-5.06;79.64;98085.52;108350;1269;70654;-75
2021/12/22 03:10:18;;;;;;;8.00;4.90;;;;;;;-5.06;79.69;98088.77;108299;1269;68200;-76
2021/12/22 03:13:00;;;;;;;17.90;9.80;;;;;;;-5.05;79.72;98091.30;108104;1272;69244;-76
2021/12/22 03:15:31;;;;;;;13.60;8.90;;;;;;;-5.07;80.81;98093.02;108318;1269;59697;-75
2021/12/22 03:18:04;;;;;;;8.90;6.50;;;;;;;-5.05;80.60;98094.88;108386;1269;59691;-74
2021/12/22 03:20:34;;;;;;;9.90;7.10;;;;;;;-5.03;80.25;98099.13;108337;1270;71551;-75
2021/12/22 03:23:04;;;;;;;9.60;7.40;;;;;;;-5.00;80.40;98100.14;108108;1268;68736;-74
2021/12/22 03:25:34;;;;;;;9.30;6.40;;;;;;;-4.98;80.32;98101.69;108170;1272;68677;-76
2021/12/22 03:28:05;;;;;;;19.10;11.30;;;;;;;-4.96;80.19;98108.98;108252;1269;59707;-75
2021/12/22 03:30:35;;;;;;;13.50;9.00;;;;;;;-4.97;81.05;98105.08;108290;1269;59713;-76
2021/12/22 03:33:05;;;;;;;10.40;6.20;;;;;;;-4.95;80.60;98107.95;108288;1269;70725;-76
2021/12/22 03:35:35;;;;;;;16.60;10.60;;;;;;;-4.93;80.27;98105.76;108362;1269;68438;-75
2021/12/22 03:38:06;;;;;;;19.40;10.30;;;;;;;-4.93;80.61;98105.59;108243;1269;68668;-75
2021/12/22 03:40:35;;;;;;;15.20;10.70;;;;;;;-4.97;80.60;98110.51;108310;1272;59662;-74
2021/12/22 03:43:06;;;;;;;15.00;10.00;;;;;;;-4.99;80.86;98110.17;108412;1269;59713;-75
2021/12/22 03:45:36;;;;;;;16.50;9.50;;;;;;;-4.98;80.85;98115.10;108219;1270;71670;-75
2021/12/22 03:48:06;;;;;;;17.30;10.60;;;;;;;-4.96;80.73;98111.35;108220;1272;68652;-75
2021/12/22 03:50:35;;;;;;;18.50;9.70;;;;;;;-4.94;80.72;98111.89;108277;1269;67888;-74
2021/12/22 03:53:05;;;;;;;13.90;7.60;;;;;;;-4.91;80.67;98111.69;108110;1270;59728;-75
2021/12/22 03:55:34;;;;;;;20.60;12.40;;;;;;;-4.88;80.53;98112.05;108113;1272;59691;-73
2021/12/22 03:58:04;;;;;;;10.10;6.90;;;;;;;-4.87;80.45;98112.89;108247;1270;71970;-72
2021/12/22 04:00:37;;;;;;;10.40;7.70;;;;;;;-4.87;80.25;98114.25;108141;1272;67670;-73
2021/12/22 04:03:11;;;;;;;14.40;9.30;;;;;;;-4.85;79.80;98118.67;108247;1269;69449;-73
2021/12/22 04:05:40;;;;;;;18.70;12.60;;;;;;;-4.83;79.94;98122.92;108255;1272;59744;-74
2021/12/22 04:08:11;;;;;;;20.70;12.80;;;;;;;-4.87;81.05;98125.64;108238;1269;59727;-74
2021/12/22 04:10:41;;;;;;;18.50;10.20;;;;;;;-4.91;81.48;98128.37;108241;1270;71482;-74
2021/12/22 04:13:10;;;;;;;17.90;10.40;;;;;;;-4.91;81.22;98131.94;108219;1269;68415;-74
2021/12/22 04:15:41;;;;;;;14.00;9.30;;;;;;;-4.91;81.78;98130.23;108243;1268;68629;-74
2021/12/22 04:18:11;;;;;;;13.50;9.20;;;;;;;-4.91;80.95;98132.44;108083;1272;59761;-75
2021/12/22 04:20:42;;;;;;;23.50;13.10;;;;;;;-4.94;81.60;98136.36;108272;1269;59688;-74
2021/12/22 04:23:12;;;;;;;;;;;;;;;-4.99;81.93;98138.23;108250;1270;71587;-74
2021/12/22 04:25:42;;;;;;;14.00;9.00;;;;;;;-5.02;82.21;98141.98;108240;1269;68609;-75
2021/12/22 04:28:11;;;;;;;21.30;12.00;;;;;;;-5.02;81.98;98139.59;108251;1269;69560;-74
2021/12/22 04:30:47;;;;;;;12.40;9.10;;;;;;;-5.01;82.08;98141.12;108166;1269;59696;-74
2021/12/22 04:33:22;;;;;;;18.00;12.10;;;;;;;-5.00;81.65;98140.59;108254;1269;59715;-74
2021/12/22 04:35:52;;;;;;;19.80;10.80;;;;;;;-5.02;82.05;98144.52;108211;1270;71607;-74
2021/12/22 04:38:22;;;;;;;16.60;10.70;;;;;;;-5.03;81.58;98145.19;108258;1272;66929;-74
2021/12/22 04:40:51;;;;;;;18.60;11.00;;;;;;;-5.03;81.54;98144.52;108204;1269;69499;-73
2021/12/22 04:43:20;;;;;;;13.30;7.80;;;;;;;-5.01;81.18;98142.47;108205;1270;59869;-74
2021/12/22 04:45:50;;;;;;;10.50;7.70;;;;;;;-4.98;80.59;98143.50;108210;1269;59738;-74
2021/12/22 04:48:19;;;;;;;9.80;5.90;;;;;;;-4.96;80.14;98142.65;108187;1269;69962;-75
2021/12/22 04:50:49;;;;;;;10.80;7.80;;;;;;;-4.95;79.92;98145.20;108259;1268;67933;-74
2021/12/22 04:53:25;;;;;;;19.40;11.10;;;;;;;-4.94;79.91;98147.92;108249;1269;68456;-74
2021/12/22 04:55:58;;;;;;;12.90;9.00;;;;;;;-4.94;80.22;98149.11;108172;1272;59696;-73
2021/12/22 04:58:28;;;;;;;10.10;6.80;;;;;;;-4.94;79.87;98149.12;108154;1272;59662;-74
2021/12/22 05:00:57;;;;;;;9.40;6.90;;;;;;;-4.93;79.58;98147.58;108145;1271;71572;-73
2021/12/22 05:03:27;;;;;;;8.20;6.00;;;;;;;-4.93;79.49;98151.33;108217;1269;68530;-74
2021/12/22 05:05:56;;;;;;;8.40;5.60;;;;;;;-4.93;79.49;98153.02;108286;1269;69282;-74
2021/12/22 05:08:25;;;;;;;7.40;6.00;;;;;;;-4.94;79.38;98153.03;108169;1271;59765;-73
2021/12/22 05:10:54;;;;;;;8.50;5.80;;;;;;;-4.94;79.43;98153.52;108212;1272;59645;-74
2021/12/22 05:13:23;;;;;;;8.50;5.70;;;;;;;-4.94;79.94;98151.84;108127;1272;71667;-73
2021/12/22 05:15:52;;;;;;;9.10;6.70;;;;;;;-4.92;80.09;98156.25;108275;1269;68674;-74
2021/12/22 05:18:24;;;;;;;7.90;6.10;;;;;;;-4.93;79.84;98157.77;108303;1269;68606;-74
2021/12/22 05:20:54;;;;;;;12.20;8.20;;;;;;;-4.92;79.66;98157.61;108282;1269;59806;-76
2021/12/22 05:23:24;;;;;;;9.70;5.80;;;;;;;-4.94;79.63;98155.40;108269;1269;59697;-75
2021/12/22 05:25:53;;;;;;;11.10;7.30;;;;;;;-4.95;79.36;98156.59;108292;1269;71744;-75
2021/12/22 05:28:23;;;;;;;8.40;5.70;;;;;;;-4.96;79.40;98152.84;108259;1269;68587;-75
2021/12/22 05:30:53;;;;;;;11.60;8.50;;;;;;;-4.96;79.15;98156.07;108108;1273;69245;-75
2021/12/22 05:33:21;;;;;;;13.70;8.60;;;;;;;-4.98;79.35;98152.35;108268;1269;59738;-75
2021/12/22 05:35:51;;;;;;;15.90;9.30;;;;;;;-5.00;79.68;98155.39;108269;1269;59662;-75
2021/12/22 05:38:20;;;;;;;12.50;8.60;;;;;;;-5.03;79.92;98155.06;108214;1272;71411;-75
2021/12/22 05:40:49;;;;;;;15.60;9.90;;;;;;;-5.04;79.68;98156.74;108324;1269;68466;-75
2021/12/22 05:43:19;;;;;;;17.40;10.80;;;;;;;-5.09;80.14;98159.30;108291;1269;67531;-75
2021/12/22 05:45:48;;;;;;;10.40;6.40;;;;;;;-5.13;80.07;98168.29;108281;1269;59700;-75
2021/12/22 05:48:22;;;;;;;15.50;9.70;;;;;;;-5.14;79.95;98167.45;108285;1268;59655;-74
2021/12/22 05:50:56;;;;;;;10.90;7.40;;;;;;;-5.18;80.06;98170.16;108275;1273;71381;-75
2021/12/22 05:53:26;;;;;;;10.10;6.30;;;;;;;-5.18;79.95;98171.52;108110;1272;67909;-75
2021/12/22 05:55:56;;;;;;;9.50;6.50;;;;;;;-5.16;79.72;98166.60;108125;1272;68769;-75
2021/12/22 05:58:27;;;;;;;11.10;6.00;;;;;;;-5.14;79.77;98166.92;108292;1269;60106;-75
2021/12/22 06:00:56;;;;;;;11.40;6.60;;;;;;;-5.14;79.19;98168.63;108323;1269;59656;-75
2021/12/22 06:03:26;;;;;;;9.30;6.30;;;;;;;-5.17;79.14;98172.55;108297;1269;71470;-75
2021/12/22 06:05:55;;;;;;;8.50;5.30;;;;;;;-5.15;78.94;98179.51;108419;1269;67715;-75
2021/12/22 06:08:24;;;;;;;6.80;4.90;;;;;;;-5.13;78.86;98177.66;108274;1269;70093;-75
2021/12/22 06:10:53;;;;;;;9.40;6.00;;;;;;;-5.11;78.76;98178.84;108238;1269;59748;-75
2021/12/22 06:13:22;;;;;;;8.50;5.30;;;;;;;-5.10;78.60;98179.19;108135;1272;59693;-74
2021/12/22 06:15:51;;;;;;;6.20;4.40;;;;;;;-5.10;78.13;98183.25;108324;1269;70901;-75
2021/12/22 06:18:20;;;;;;;6.80;5.00;;;;;;;-5.09;78.17;98180.36;108328;1269;67899;-75
2021/12/22 06:20:50;;;;;;;6.80;4.80;;;;;;;-5.08;77.82;98182.74;108288;1269;68643;-75
2021/12/22 06:23:19;;;;;;;6.30;4.20;;;;;;;-5.09;77.97;98190.73;108276;1269;59678;-75
2021/12/22 06:25:47;;;;;;;10.30;6.30;;;;;;;-5.09;77.83;98190.05;108299;1269;59627;-75
2021/12/22 06:28:16;;;;;;;9.10;5.60;;;;;;;-5.14;77.44;98191.24;108323;1269;71663;-74
2021/12/22 06:30:45;;;;;;;7.60;4.90;;;;;;;-5.16;77.60;98196.86;108280;1269;68612;-74
2021/12/22 06:33:15;;;;;;;9.20;5.60;;;;;;;-5.13;77.72;98202.63;108196;1269;69528;-74
2021/12/22 06:35:46;;;;;;;11.10;6.30;;;;;;;-5.09;77.94;98202.30;108286;1269;59696;-75
2021/12/22 06:38:17;;;;;;;8.80;6.20;;;;;;;-5.06;77.82;98207.76;108328;1269;59739;-75
2021/12/22 06:40:46;;;;;;;11.10;7.60;;;;;;;-5.04;77.73;98214.88;108298;1269;71649;-74
2021/12/22 06:43:16;;;;;;;10.00;6.60;;;;;;;-5.02;77.90;98217.79;108124;1272;68632;-76
2021/12/22 06:45:45;;;;;;;13.30;9.40;;;;;;;-5.01;77.88;98222.04;108250;1269;69479;-75
2021/12/22 06:48:14;;;;;;;11.80;8.60;;;;;;;-4.98;77.76;98222.71;108258;1269;59735;-74
2021/12/22 06:50:43;;;;;;;20.30;12.10;;;;;;;-4.95;77.03;98223.73;108279;1269;59764;-75
2021/12/22 06:53:12;;;;;;;44.60;21.60;;;;;;;-4.90;77.54;98229.54;108284;1269;71030;-76
2021/12/22 06:55:41;;;;;;;39.20;21.40;;;;;;;-4.86;77.28;98228.35;108301;1269;67443;-75
2021/12/22 06:58:11;;;;;;;29.80;17.30;;;;;;;-4.81;77.28;98233.63;108255;1269;69639;-74
2021/12/22 07:00:40;;;;;;;24.40;15.20;;;;;;;-4.77;77.06;98236.18;108332;1269;59763;-75
2021/12/22 07:03:09;;;;;;;16.20;11.20;;;;;;;-4.74;77.03;98239.25;108355;1272;59738;-75
2021/12/22 07:05:39;;;;;;;11.30;8.90;;;;;;;-4.70;77.07;98243.84;108265;1272;71747;-74
2021/12/22 07:08:07;;;;;;;11.40;8.40;;;;;;;-4.66;76.92;98240.80;108258;1270;66901;-75
2021/12/22 07:10:37;;;;;;;19.40;15.80;;;;;;;-4.61;76.88;98245.39;108239;1269;68698;-74
2021/12/22 07:13:07;;;;;;;33.90;22.60;;;;;;;-4.55;76.79;98243.52;108289;1269;59763;-75
2021/12/22 07:15:36;;;;;;;28.10;17.80;;;;;;;-4.50;76.76;98246.07;108263;1269;59734;-74
2021/12/22 07:18:08;;;;;;;22.20;16.80;;;;;;;-4.47;76.69;98244.21;108295;1269;71132;-75
2021/12/22 07:20:37;;;;;;;22.50;14.80;;;;;;;-4.47;76.28;98240.98;108294;1269;68305;-75
2021/12/22 07:23:07;;;;;;;12.80;9.70;;;;;;;-4.52;75.52;98245.74;108249;1269;69439;-74
2021/12/22 07:25:36;;;;;;;12.60;8.60;;;;;;;-4.51;75.93;98248.29;108280;1269;59753;-74
2021/12/22 07:28:07;;;;;;;10.80;7.60;;;;;;;-4.53;75.54;98250.16;108092;1272;59666;-74
2021/12/22 07:30:37;;;;;;;13.80;8.10;;;;;;;-4.58;75.48;98256.96;108182;1270;71535;-74
2021/12/22 07:33:06;;;;;;;11.70;7.80;;;;;;;-4.62;75.80;98257.98;108360;1269;68563;-75
2021/12/22 07:35:38;;;;;;;13.80;8.40;;;;;;;-4.63;75.83;98257.13;108281;1269;68625;-76
2021/12/22 07:38:24;;;;;;;12.90;7.60;;;;;;;-4.65;75.88;98258.98;108286;1269;59758;-76
2021/12/22 07:40:56;;;;;;;18.50;10.30;;;;;;;-4.64;75.96;98262.05;108316;1270;59695;-76
2021/12/22 07:43:27;;;;;;;16.00;9.00;;;;;;;-4.61;76.06;98264.61;108383;1269;71014;-74
2021/12/22 07:45:56;;;;;;;;;;;;;;;-4.57;76.10;98263.42;108472;1269;68385;-77
2021/12/22 07:48:26;;;;;;;16.30;10.60;;;;;;;-4.52;76.15;98265.81;108408;1269;69481;-75
2021/12/22 07:50:59;;;;;;;17.60;13.40;;;;;;;-4.47;75.71;98263.27;108230;1270;59744;-75
2021/12/22 07:53:28;;;;;;;16.70;9.90;;;;;;;-4.41;75.86;98264.61;108286;1269;59700;-75
2021/12/22 07:55:57;;;;;;;14.30;9.10;;;;;;;-4.39;74.26;98269.39;108299;1269;72285;-75
2021/12/22 07:58:27;;;;;;;12.70;7.60;;;;;;;-4.35;74.93;98270.23;108306;1269;68686;-75
2021/12/22 08:00:57;;;;;;;12.50;8.60;;;;;;;-4.28;75.21;98273.47;108222;1270;69539;-76
2021/12/22 08:03:26;;;;;;;16.20;10.80;;;;;;;-4.18;75.14;98273.46;108330;1269;60124;-76
2021/12/22 08:06:13;;;;;;;13.90;8.40;;;;;;;-4.13;74.85;98278.23;108271;1269;59710;-76
2021/12/22 08:08:42;;;;;;;10.40;7.70;;;;;;;-4.07;74.76;98281.30;108194;1272;71725;-76
2021/12/22 08:11:11;;;;;;;14.40;9.60;;;;;;;-3.99;74.83;98275.16;108237;1269;67971;-76
2021/12/22 08:13:40;;;;;;;13.30;9.10;;;;;;;-3.93;74.02;98276.51;108134;1272;69467;-75
2021/12/22 08:16:10;;;;;;;10.90;7.40;;;;;;;-3.88;73.90;98279.58;108136;1269;59799;-77
2021/12/22 08:18:39;;;;;;;12.30;8.30;;;;;;;-3.84;74.15;98287.58;108304;1269;59710;-76
2021/12/22 08:21:08;;;;;;;14.70;9.20;;;;;;;-3.77;73.38;98290.80;107378;1272;992371;-76
2021/12/22 08:23:40;;;;;;;9.60;6.90;;;;;;;-3.73;72.24;98295.05;108147;1272;68619;-76
2021/12/22 08:26:10;;;;;;;14.80;10.00;;;;;;;-3.62;72.68;98296.04;108043;1272;68658;-76
2021/12/22 08:28:39;;;;;;;12.90;8.30;;;;;;;-3.54;71.59;98302.15;108143;1272;59776;-76
2021/12/22 08:31:10;;;;;;;12.70;8.20;;;;;;;-3.39;71.64;98302.46;108187;1271;59786;-75
2021/12/22 08:33:44;;;;;;;19.80;13.00;;;;;;;-3.18;71.59;98305.80;108273;1272;70562;-75
2021/12/22 08:39:04;;;;;;;10.30;8.30;;;;;;;-2.55;69.42;98307.02;108145;1272;68664;-76
2021/12/22 08:41:39;;;;;;;12.20;8.50;;;;;;;-1.74;66.86;98311.48;108149;1270;59687;-75
2021/12/22 08:44:11;;;;;;;11.30;7.60;;;;;;;-1.03;62.86;98314.85;108161;1272;59662;-76
2021/12/22 08:46:42;;;;;;;12.90;8.10;;;;;;;-1.07;63.67;98317.80;108260;1271;70647;-75
2021/12/22 08:49:11;;;;;;;9.50;6.50;;;;;;;-1.10;63.33;98319.54;108285;1271;68686;-76
2021/12/22 08:51:40;;;;;;;10.20;6.60;;;;;;;-1.04;63.61;98323.58;108095;1272;69430;-77
2021/12/22 08:54:10;;;;;;;13.10;7.50;;;;;;;-1.00;64.30;98326.78;108113;1271;59983;-76
2021/12/22 08:56:39;;;;;;;8.20;6.00;;;;;;;-1.00;64.50;98326.28;108047;1272;59678;-76
2021/12/22 08:59:10;;;;;;;12.30;9.80;;;;;;;-1.05;64.55;98327.54;108013;1272;71781;-76
2021/12/22 09:01:39;;;;;;;10.20;7.00;;;;;;;-1.15;63.50;98327.98;108102;1272;68642;-76
2021/12/22 09:04:10;;;;;;;10.50;7.60;;;;;;;-1.24;62.97;98328.27;108097;1272;69060;-76
2021/12/22 09:06:39;;;;;;;8.70;6.70;;;;;;;-1.38;63.17;98330.81;108108;1272;60013;-76
2021/12/22 09:09:10;;;;;;;11.80;7.70;;;;;;;-1.31;64.15;98326.29;108139;1272;59809;-76
2021/12/22 09:11:40;;;;;;;10.70;7.40;;;;;;;-1.00;62.89;98327.98;108189;1272;70820;-76
2021/12/22 09:14:11;;;;;;;12.50;7.70;;;;;;;-0.67;63.00;98324.98;107992;1275;68755;-76
2021/12/22 09:16:41;;;;;;;12.40;9.60;;;;;;;-0.61;61.88;98321.65;108018;1271;69466;-77
2021/12/22 09:19:11;;;;;;;14.60;8.80;;;;;;;-0.57;61.76;98321.43;108153;1272;59712;-77
2021/12/22 09:21:41;;;;;;;10.90;7.40;;;;;;;-0.63;60.68;98318.27;108077;1272;59760;-76
2021/12/22 09:24:10;;;;;;;10.70;7.00;;;;;;;-0.70;61.64;98320.91;108071;1272;71590;-76
2021/12/22 09:26:40;;;;;;;10.80;7.30;;;;;;;-0.75;60.83;98317.73;108146;1272;68723;-76
2021/12/22 09:29:09;;;;;;;11.70;7.60;;;;;;;-0.70;60.88;98317.83;108138;1272;68849;-77
2021/12/22 09:31:39;;;;;;;11.30;7.30;;;;;;;-0.55;61.52;98320.36;108079;1272;59796;-77
2021/12/22 09:34:08;;;;;;;11.50;8.50;;;;;;;-0.28;59.30;98317.25;108083;1271;59761;-76
2021/12/22 09:36:40;;;;;;;13.10;9.10;;;;;;;0.13;59.40;98311.98;108027;1274;71599;-77
2021/12/22 09:39:10;;;;;;;10.80;7.70;;;;;;;0.36;57.77;98308.33;108025;1272;69069;-77
2021/12/22 09:41:39;;;;;;;8.80;6.40;;;;;;;0.34;56.79;98302.70;108091;1272;69799;-77
2021/12/22 09:44:11;;;;;;;11.00;7.00;;;;;;;0.47;57.45;98304.69;108188;1272;59763;-76
2021/12/22 09:46:45;;;;;;;9.90;6.60;;;;;;;0.79;57.21;98305.46;107878;1272;59694;-76
2021/12/22 09:49:35;;;;;;;10.50;7.30;;;;;;;1.05;55.68;98307.19;108054;1272;71747;-76
2021/12/22 09:52:26;;;;;;;11.60;7.80;;;;;;;1.02;54.59;98305.02;108068;1272;68648;-77
2021/12/22 09:54:59;;;;;;;10.00;7.60;;;;;;;0.72;54.89;98309.37;108075;1272;69486;-77
2021/12/22 09:57:29;;;;;;;11.60;7.10;;;;;;;0.64;56.10;98306.44;108081;1272;59699;-77
2021/12/22 09:59:59;;;;;;;;;;;;;;;0.67;56.25;98308.62;108089;1272;59741;-77
2021/12/22 10:02:30;;;;;;;9.90;8.20;;;;;;;0.47;54.94;98310.34;108147;1272;71570;-77
2021/12/22 10:05:01;;;;;;;11.70;7.30;;;;;;;0.57;55.99;98309.66;108091;1272;67908;-77
2021/12/22 10:07:36;;;;;;;9.00;7.00;;;;;;;0.54;55.18;98309.36;108125;1272;68443;-77
2021/12/22 10:10:09;;;;;;;9.30;7.10;;;;;;;0.49;56.15;98308.25;108093;1272;59699;-77
2021/12/22 10:12:39;;;;;;;11.30;8.30;;;;;;;0.57;55.60;98309.49;108033;1272;59744;-76
2021/12/22 10:15:10;;;;;;;11.90;7.80;;;;;;;1.24;54.06;98309.86;108044;1272;71408;-77
2021/12/22 10:17:44;;;;;;;11.50;9.30;;;;;;;1.66;50.97;98314.46;108146;1272;68005;-74
2021/12/22 10:20:16;;;;;;;11.70;7.10;;;;;;;1.73;51.32;98313.94;108212;1272;69529;-76
2021/12/22 10:22:49;;;;;;;13.50;8.60;;;;;;;2.10;51.02;98305.52;107952;1274;59770;-76
2021/12/22 10:25:23;;;;;;;10.80;7.10;;;;;;;2.70;49.81;98307.40;108051;1271;59748;-76
2021/12/22 10:28:13;;;;;;;11.50;7.90;;;;;;;2.84;48.73;98305.11;108140;1273;72262;-76
2021/12/22 10:30:43;;;;;;;10.70;8.00;;;;;;;3.00;50.62;98305.19;108125;1272;68759;-75
2021/12/22 10:33:17;;;;;;;;;;;;;;;3.79;45.13;98297.84;108078;1272;70194;-76
2021/12/22 10:35:49;;;;;;;11.30;7.20;;;;;;;3.93;44.24;98298.77;108073;1272;59709;-76
2021/12/22 10:38:21;;;;;;;11.10;8.80;;;;;;;3.76;44.51;98297.77;108122;1272;59730;-76
2021/12/22 10:40:53;;;;;;;11.00;8.50;;;;;;;3.53;44.61;98297.77;108033;1272;72202;-76
2021/12/22 10:43:29;;;;;;;10.90;8.20;;;;;;;3.34;44.73;98292.48;108169;1272;67786;-76
2021/12/22 10:46:02;;;;;;;12.40;8.60;;;;;;;3.27;43.68;98290.83;108143;1272;69526;-75
2021/12/22 10:51:31;;;;;;;;;;;;;;;3.96;42.80;98280.58;108182;1272;59783;-76
2021/12/22 10:54:07;;;;;;;12.00;7.40;;;;;;;4.51;42.62;98278.71;108132;1272;70897;-76
2021/12/22 10:56:39;;;;;;;10.10;6.00;;;;;;;5.22;42.02;98279.11;108092;1272;67741;-76
2021/12/22 10:59:17;;;;;;;7.70;5.70;;;;;;;5.37;41.29;98281.29;108048;1272;69561;-76
2021/12/22 11:01:58;;;;;;;8.80;6.50;;;;;;;5.75;41.03;98275.00;108098;1272;59747;-76
2021/12/22 11:04:32;;;;;;;8.50;6.00;;;;;;;6.57;39.58;98281.85;108035;1271;59705;-76
2021/12/22 11:07:15;;;;;;;8.90;6.60;;;;;;;7.11;35.54;98279.30;108155;1272;70894;-77
2021/12/22 11:09:44;;;;;;;8.10;5.70;;;;;;;6.90;35.01;98279.05;108033;1268;68144;-76
2021/12/22 11:12:17;;;;;;;9.80;5.80;;;;;;;6.34;34.15;98271.75;108068;1272;68781;-76
2021/12/22 11:14:47;;;;;;;10.20;7.20;;;;;;;6.12;34.03;98268.52;108043;1272;59697;-77
2021/12/22 11:17:19;;;;;;;9.70;6.90;;;;;;;6.25;35.03;98268.52;108133;1272;59706;-77
2021/12/22 11:20:03;;;;;;;8.90;6.30;;;;;;;6.71;35.49;98274.52;108031;1271;70913;-76
2021/12/22 11:22:46;;;;;;;8.10;6.30;;;;;;;7.43;35.69;98271.45;108055;1272;68640;-76
2021/12/22 11:25:15;;;;;;;8.30;6.00;;;;;;;8.06;33.44;98269.11;108093;1272;68753;-76
2021/12/22 11:27:45;;;;;;;9.90;6.40;;;;;;;8.34;33.91;98270.51;108021;1270;59683;-77
2021/12/22 11:30:14;;;;;;;;;;;;;;;8.28;33.22;98270.84;108086;1273;59760;-77
2021/12/22 11:32:44;;;;;;;8.60;6.20;;;;;;;7.74;32.58;98265.63;108095;1272;72129;-75
2021/12/22 11:35:14;;;;;;;7.70;6.40;;;;;;;7.59;32.47;98267.76;108127;1272;68827;-76
2021/12/22 11:37:44;;;;;;;10.00;7.20;;;;;;;7.14;32.41;98272.06;108113;1272;69624;-77
2021/12/22 11:40:17;;;;;;;10.60;6.60;;;;;;;6.11;33.41;98268.35;107828;1272;59711;-76
2021/12/22 11:42:46;;;;;;;19.30;13.20;;;;;;;5.31;35.75;98270.80;108021;1272;59694;-76
2021/12/22 11:45:19;;;;;;;23.70;13.30;;;;;;;5.13;36.86;98274.07;108111;1272;72276;-76
2021/12/22 11:47:52;;;;;;;34.00;16.60;;;;;;;5.75;36.71;98273.45;108151;1272;69312;-76
2021/12/22 11:50:32;;;;;;;11.20;7.10;;;;;;;5.32;34.67;98269.75;108132;1272;69513;-76